This is the latest recevied weather packets stored in our database for station/object WX4SGA. If no packets are shown the sender has not sent any weather packets the latest 1 day(s).
| Time | Temp. | Humidity | Pressure | Rain* | Wind** | Luminosity | Snow |
|---|---|---|---|---|---|---|---|
| 1777986467 | 21.67° C | 72% | 1017.6 hPa | 0 mm | 0.45 m/s, 64° | 277 W/m² | - |
| 1777986166 | 21.11° C | 72% | 1017.3 hPa | 0 mm | 0.45 m/s, 82° | 257 W/m² | - |
| 1777985862 | 20.56° C | 74% | 1017.3 hPa | 0 mm | 0.45 m/s, 58° | 239 W/m² | - |
| 1777985560 | 20° C | 75% | 1016.9 hPa | 0 mm | 0 m/s | 221 W/m² | - |
| 1777985256 | 20° C | 75% | 1016.9 hPa | 0 mm | 0.45 m/s, 89° | 206 W/m² | - |
| 1777984953 | 19.44° C | 75% | 1017.3 hPa | 0 mm | 0.45 m/s, 69° | 186 W/m² | - |
| 1777984648 | 20° C | 75% | 1017.3 hPa | 0 mm | 0.45 m/s, 75° | 160 W/m² | - |
| 1777984346 | 19.44° C | 76% | 1017.3 hPa | 0 mm | 0 m/s | 158 W/m² | - |
| 1777984042 | 19.44° C | 77% | 1017.3 hPa | 0 mm | 0 m/s | 142 W/m² | - |
| 1777983739 | 18.89° C | 78% | 1017.3 hPa | 0 mm | 0 m/s | 128 W/m² | - |
| 1777983436 | 18.33° C | 80% | 1016.9 hPa | 0 mm | 0 m/s | 112 W/m² | - |
| 1777983133 | 17.78° C | 80% | 1016.9 hPa | 0 mm | 0.45 m/s, 69° | 101 W/m² | - |
| 1777982829 | 17.22° C | 85% | 1016.9 hPa | 0 mm | 0 m/s | 88 W/m² | - |
| 1777982525 | 16.67° C | 85% | 1016.9 hPa | 0 mm | 0 m/s | 79 W/m² | - |
| 1777982218 | 16.67° C | 86% | 1016.9 hPa | 0 mm | 0 m/s | 65 W/m² | - |
| 1777981917 | 16.11° C | 87% | 1016.9 hPa | 0 mm | 0 m/s | 57 W/m² | - |
| 1777981614 | 15.56° C | 90% | 1016.9 hPa | 0 mm | 0 m/s | 47 W/m² | - |
| 1777981310 | 15° C | 91% | 1016.9 hPa | 0 mm | 0 m/s | 39 W/m² | - |
| 1777981006 | 14.44° C | 95% | 1016.9 hPa | 0 mm | 0 m/s | 35 W/m² | - |
| 1777980703 | 13.89° C | 95% | 1016.9 hPa | 0 mm | 0 m/s | 26 W/m² | - |
| 1777980399 | 13.89° C | 96% | 1016.9 hPa | 0 mm | 0 m/s | 21 W/m² | - |
| 1777980098 | 13.89° C | 96% | 1016.9 hPa | 0 mm | 0 m/s | 20 W/m² | - |
| 1777979791 | 13.33° C | 97% | 1016.9 hPa | 0 mm | 0 m/s | 17 W/m² | - |
| 1777979487 | 13.33° C | 97% | 1016.9 hPa | 0 mm | 0 m/s | 13 W/m² | - |
| 1777979183 | 13.33° C | 97% | 1016.9 hPa | 0 mm | 0 m/s | 10 W/m² | - |
* Rain latest hour (hover to see other rain measurements)
** Current wind speed in m/s (hover to see current wind gust speed)